createdAt,value
2022-08-19T00:00:07.992Z,57.10
2022-08-19T00:00:59.877Z,57.10
2022-08-19T00:01:53.015Z,57.20
2022-08-19T00:02:47.038Z,57.10
2022-08-19T00:03:35.576Z,57.10
2022-08-19T00:04:27.451Z,57.10
2022-08-19T00:05:19.371Z,57.10
2022-08-19T00:06:11.265Z,57.20
2022-08-19T00:07:03.166Z,57.00
2022-08-19T00:07:55.050Z,57.10
2022-08-19T00:08:46.940Z,57.10
2022-08-19T00:09:38.835Z,57.10
2022-08-19T00:10:30.788Z,57.10
2022-08-19T00:11:25.654Z,57.10
2022-08-19T00:12:14.554Z,57.10
2022-08-19T00:13:06.418Z,57.10
2022-08-19T00:13:58.343Z,57.10
2022-08-19T00:14:50.139Z,57.10
2022-08-19T00:15:42.142Z,57.10
2022-08-19T00:16:34.005Z,57.10
2022-08-19T00:17:25.903Z,57.10
2022-08-19T00:18:17.797Z,57.20
2022-08-19T00:19:09.690Z,57.10
2022-08-19T00:20:01.583Z,57.10
2022-08-19T00:20:53.486Z,57.10
2022-08-19T00:21:45.361Z,57.20
2022-08-19T00:22:37.203Z,57.20
2022-08-19T00:23:29.164Z,57.20
2022-08-19T00:24:21.073Z,57.10
2022-08-19T00:25:12.948Z,57.20
2022-08-19T00:26:04.859Z,57.20
2022-08-19T00:26:56.746Z,57.20
2022-08-19T00:27:48.634Z,57.20
2022-08-19T00:28:40.534Z,57.20
2022-08-19T00:29:32.437Z,57.30
2022-08-19T00:30:24.314Z,57.20
2022-08-19T00:31:16.216Z,57.20
2022-08-19T00:32:08.104Z,57.20
2022-08-19T00:33:00.013Z,57.20
2022-08-19T00:33:51.885Z,57.20
2022-08-19T00:34:43.805Z,57.20
2022-08-19T00:35:35.703Z,57.10
2022-08-19T00:36:27.498Z,57.10
2022-08-19T00:37:19.480Z,57.10
2022-08-19T00:38:11.371Z,57.20
2022-08-19T00:39:03.252Z,57.30
2022-08-19T00:39:55.222Z,57.30
2022-08-19T00:40:47.029Z,57.30
2022-08-19T00:41:38.837Z,57.30
2022-08-19T00:42:30.827Z,57.20
2022-08-19T00:43:22.754Z,57.20
2022-08-19T00:44:14.614Z,57.20
2022-08-19T00:45:06.532Z,57.10
2022-08-19T00:45:58.395Z,57.10
2022-08-19T00:46:57.758Z,57.20
2022-08-19T00:47:42.188Z,57.30
2022-08-19T00:48:34.094Z,57.30
2022-08-19T00:49:25.992Z,57.30
2022-08-19T00:50:17.885Z,57.30
2022-08-19T00:51:09.764Z,57.30
2022-08-19T00:52:01.662Z,57.20
2022-08-19T00:52:53.829Z,57.20
2022-08-19T00:53:45.455Z,57.20
2022-08-19T00:54:37.272Z,57.30
2022-08-19T00:55:29.237Z,57.30
2022-08-19T00:56:21.120Z,57.30
2022-08-19T00:57:13.038Z,57.30
2022-08-19T00:58:04.904Z,57.30
2022-08-19T00:58:56.839Z,57.30
2022-08-19T00:59:56.278Z,57.30
2022-08-19T01:00:40.602Z,57.30
2022-08-19T01:01:32.554Z,57.40
2022-08-19T01:02:24.383Z,57.40
2022-08-19T01:03:16.266Z,57.40
2022-08-19T01:04:08.159Z,57.30
2022-08-19T01:05:00.036Z,57.20
2022-08-19T01:05:51.955Z,57.30
2022-08-19T01:06:43.824Z,57.30
2022-08-19T01:07:38.314Z,57.20
2022-08-19T01:08:27.539Z,57.30
2022-08-19T01:09:19.506Z,57.30
2022-08-19T01:10:11.387Z,57.40
2022-08-19T01:11:03.290Z,57.30
2022-08-19T01:11:55.172Z,57.30
2022-08-19T01:12:47.133Z,57.40
2022-08-19T01:13:49.190Z,57.40
2022-08-19T01:14:30.859Z,57.30
2022-08-19T01:15:22.728Z,57.30
2022-08-19T01:16:14.640Z,57.30
2022-08-19T01:17:06.517Z,57.40
2022-08-19T01:17:58.432Z,57.40
2022-08-19T01:18:50.258Z,57.40
2022-08-19T01:19:43.649Z,57.50
2022-08-19T01:20:34.091Z,57.60
2022-08-19T01:21:25.989Z,57.60
2022-08-19T01:22:21.217Z,57.60
2022-08-19T01:23:09.762Z,57.50
2022-08-19T01:24:01.644Z,57.50
2022-08-19T01:24:53.560Z,57.50
2022-08-19T01:25:45.477Z,57.40
2022-08-19T01:26:37.253Z,57.40
2022-08-19T01:27:32.973Z,57.40
2022-08-19T01:28:34.119Z,57.40
2022-08-19T01:29:12.987Z,57.40
2022-08-19T01:30:04.887Z,57.50
2022-08-19T01:30:56.778Z,57.50
2022-08-19T01:31:48.670Z,57.50
2022-08-19T01:32:40.565Z,57.50
2022-08-19T01:33:32.452Z,57.50
2022-08-19T01:34:24.352Z,57.50
2022-08-19T01:35:16.243Z,57.60
2022-08-19T01:36:08.118Z,57.80
2022-08-19T01:37:00.025Z,58.20
2022-08-19T01:37:51.900Z,58.40
2022-08-19T01:38:43.959Z,58.10
2022-08-19T01:39:35.812Z,58.10
2022-08-19T01:40:27.558Z,57.80
2022-08-19T01:41:19.470Z,57.70
2022-08-19T01:42:11.376Z,57.70
2022-08-19T01:43:03.247Z,57.60
2022-08-19T01:44:09.687Z,57.70
2022-08-19T01:44:47.028Z,57.60
2022-08-19T01:45:38.952Z,57.50
2022-08-19T01:46:30.824Z,57.50
2022-08-19T01:47:22.720Z,57.50
2022-08-19T01:48:14.605Z,57.50
2022-08-19T01:49:06.502Z,57.60
2022-08-19T01:49:58.387Z,57.70
2022-08-19T01:50:50.287Z,57.70
2022-08-19T01:51:42.168Z,57.70
2022-08-19T01:52:34.076Z,57.70
2022-08-19T01:53:26.729Z,57.70
2022-08-19T01:54:23.133Z,57.60
2022-08-19T01:55:09.724Z,57.60
2022-08-19T01:56:01.646Z,57.70
2022-08-19T01:56:53.503Z,57.70
2022-08-19T01:57:45.416Z,57.70
2022-08-19T01:58:37.214Z,57.70
2022-08-19T01:59:29.196Z,57.60
2022-08-19T02:00:21.088Z,57.50
2022-08-19T02:01:13.027Z,57.50
2022-08-19T02:02:04.863Z,57.50
2022-08-19T02:02:56.764Z,57.50
2022-08-19T02:03:48.648Z,57.40
2022-08-19T02:04:40.538Z,57.30
2022-08-19T02:05:32.419Z,57.30
2022-08-19T02:06:26.899Z,57.30
2022-08-19T02:07:16.184Z,57.40
2022-08-19T02:08:08.090Z,57.50
2022-08-19T02:08:59.971Z,57.50
2022-08-19T02:09:51.870Z,57.60
2022-08-19T02:10:43.751Z,57.60
2022-08-19T02:11:35.659Z,57.60
2022-08-19T02:12:27.441Z,57.50
2022-08-19T02:13:22.783Z,57.50
2022-08-19T02:14:11.318Z,57.50
2022-08-19T02:15:03.137Z,57.40
2022-08-19T02:15:55.089Z,57.40
2022-08-19T02:16:47.016Z,57.40
2022-08-19T02:17:38.861Z,57.40
2022-08-19T02:18:30.767Z,57.30
2022-08-19T02:19:22.637Z,57.40
2022-08-19T02:20:14.552Z,57.40
2022-08-19T02:21:06.418Z,57.50
2022-08-19T02:21:58.326Z,57.30
2022-08-19T02:22:50.207Z,57.30
2022-08-19T02:23:42.101Z,57.40
2022-08-19T02:24:33.994Z,57.40
2022-08-19T02:25:25.872Z,57.50
2022-08-19T02:26:17.741Z,57.50
2022-08-19T02:27:09.663Z,57.30
2022-08-19T02:28:01.530Z,57.20
2022-08-19T02:28:53.432Z,57.20
2022-08-19T02:29:45.310Z,57.20
2022-08-19T02:30:37.217Z,57.20
2022-08-19T02:31:29.116Z,57.20
2022-08-19T02:32:20.976Z,57.20
2022-08-19T02:33:12.861Z,57.20
2022-08-19T02:34:04.790Z,57.20
2022-08-19T02:34:56.627Z,57.20
2022-08-19T02:35:48.523Z,57.20
2022-08-19T02:36:42.325Z,57.20
2022-08-19T02:37:32.282Z,57.30
2022-08-19T02:38:24.159Z,57.30
2022-08-19T02:39:16.060Z,57.20
2022-08-19T02:40:12.449Z,57.20
2022-08-19T02:40:59.844Z,57.20
2022-08-19T02:41:51.695Z,57.20
2022-08-19T02:42:43.596Z,57.40
2022-08-19T02:43:35.454Z,57.40
2022-08-19T02:44:31.368Z,57.50
2022-08-19T02:45:19.227Z,57.50
2022-08-19T02:46:11.091Z,57.50
2022-08-19T02:47:03.013Z,57.50
2022-08-19T02:47:54.888Z,57.50
2022-08-19T02:48:46.752Z,57.50
2022-08-19T02:49:38.652Z,57.50
2022-08-19T02:50:30.511Z,57.50
2022-08-19T02:51:22.408Z,57.40
2022-08-19T02:52:14.285Z,57.40
2022-08-19T02:53:06.166Z,57.50
2022-08-19T02:53:58.048Z,57.50
2022-08-19T02:54:49.935Z,57.60
2022-08-19T02:55:45.929Z,57.70
2022-08-19T02:56:33.709Z,57.70
2022-08-19T02:57:25.572Z,57.80
2022-08-19T02:58:17.382Z,57.60
2022-08-19T02:59:11.124Z,57.60
2022-08-19T03:00:01.240Z,57.60
2022-08-19T03:00:53.237Z,57.60
2022-08-19T03:01:45.060Z,57.50
2022-08-19T03:02:36.883Z,57.50
2022-08-19T03:03:28.783Z,57.50
2022-08-19T03:04:20.656Z,57.40
2022-08-19T03:05:12.584Z,57.30
2022-08-19T03:06:04.426Z,57.20
2022-08-19T03:07:00.709Z,57.30
2022-08-19T03:07:48.196Z,57.30
2022-08-19T03:08:40.084Z,57.40
2022-08-19T03:09:31.979Z,57.50
2022-08-19T03:10:23.861Z,57.60
2022-08-19T03:11:15.734Z,57.60
2022-08-19T03:12:07.599Z,57.60
2022-08-19T03:12:59.499Z,57.60
2022-08-19T03:13:51.407Z,57.60
2022-08-19T03:14:43.277Z,57.60
2022-08-19T03:15:35.182Z,57.60
2022-08-19T03:16:27.063Z,57.50
2022-08-19T03:17:18.944Z,57.40
2022-08-19T03:18:10.825Z,57.30
2022-08-19T03:19:02.729Z,57.40
2022-08-19T03:19:54.594Z,57.40
2022-08-19T03:20:46.496Z,57.20
2022-08-19T03:21:38.364Z,57.20
2022-08-19T03:22:30.275Z,57.20
2022-08-19T03:23:22.129Z,57.30
2022-08-19T03:24:14.028Z,57.40
2022-08-19T03:25:05.915Z,57.50
2022-08-19T03:26:03.166Z,57.50
2022-08-19T03:26:49.670Z,57.50
2022-08-19T03:27:41.562Z,57.40
2022-08-19T03:28:33.438Z,57.40
2022-08-19T03:29:30.584Z,57.30
2022-08-19T03:30:23.129Z,57.20
2022-08-19T03:31:41.826Z,57.30
2022-08-19T03:32:00.974Z,57.30
2022-08-19T03:32:53.435Z,57.30
2022-08-19T03:33:44.744Z,57.40
2022-08-19T03:34:36.642Z,57.40
2022-08-19T03:35:28.540Z,57.40
2022-08-19T03:36:20.411Z,57.30
2022-08-19T03:37:12.282Z,57.30
2022-08-19T03:38:04.178Z,57.40
2022-08-19T03:38:59.566Z,57.30
2022-08-19T03:39:47.962Z,57.30
2022-08-19T03:40:39.817Z,57.30
2022-08-19T03:41:34.176Z,57.40
2022-08-19T03:42:31.882Z,57.40
2022-08-19T03:43:15.477Z,57.50
2022-08-19T03:44:07.349Z,57.50
2022-08-19T03:44:59.262Z,57.40
2022-08-19T03:45:51.060Z,57.30
2022-08-19T03:46:44.568Z,57.30
2022-08-19T03:47:34.919Z,57.40
2022-08-19T03:48:26.798Z,57.30
2022-08-19T03:49:18.773Z,57.40
2022-08-19T03:50:10.572Z,57.30
2022-08-19T03:51:02.438Z,57.40
2022-08-19T03:51:54.392Z,57.40
2022-08-19T03:52:46.980Z,57.40
2022-08-19T03:53:38.044Z,57.50
2022-08-19T03:54:30.009Z,57.50
2022-08-19T03:55:21.888Z,57.50
2022-08-19T03:56:13.895Z,57.40
2022-08-19T03:57:05.639Z,57.30
2022-08-19T03:57:59.245Z,57.20
2022-08-19T03:58:49.416Z,57.20
2022-08-19T03:59:41.292Z,57.20
2022-08-19T04:00:33.188Z,57.30
2022-08-19T04:01:30.736Z,57.30
2022-08-19T04:02:16.957Z,57.30
2022-08-19T04:03:08.842Z,57.30
2022-08-19T04:04:00.717Z,57.30
2022-08-19T04:04:52.604Z,57.40
2022-08-19T04:05:44.497Z,57.30
2022-08-19T04:06:39.628Z,57.30
2022-08-19T04:07:28.279Z,57.30
2022-08-19T04:08:20.175Z,57.30
2022-08-19T04:09:12.053Z,57.30
2022-08-19T04:10:03.854Z,57.20
2022-08-19T04:10:55.707Z,57.30
2022-08-19T04:11:47.641Z,57.20
2022-08-19T04:12:39.584Z,57.20
2022-08-19T04:13:31.450Z,57.20
2022-08-19T04:14:23.363Z,57.30
2022-08-19T04:15:15.220Z,57.20
2022-08-19T04:16:07.183Z,57.30
2022-08-19T04:16:58.995Z,57.30
2022-08-19T04:17:50.828Z,57.30
2022-08-19T04:18:42.759Z,57.20
2022-08-19T04:19:34.674Z,57.30
2022-08-19T04:20:26.526Z,57.30
2022-08-19T04:21:18.427Z,57.20
2022-08-19T04:22:10.307Z,57.20
2022-08-19T04:23:02.201Z,57.30
2022-08-19T04:23:54.062Z,57.40
2022-08-19T04:24:45.965Z,57.40
2022-08-19T04:25:37.768Z,57.30
2022-08-19T04:26:29.714Z,57.20
2022-08-19T04:27:21.603Z,57.20
2022-08-19T04:28:13.480Z,57.10
2022-08-19T04:29:09.226Z,57.10
2022-08-19T04:29:57.239Z,57.10
2022-08-19T04:30:49.124Z,57.00
2022-08-19T04:31:41.060Z,57.00
2022-08-19T04:32:32.895Z,57.00
2022-08-19T04:33:25.724Z,57.00
2022-08-19T04:34:16.622Z,56.90
2022-08-19T04:35:18.595Z,57.00
2022-08-19T04:36:00.390Z,57.00
2022-08-19T04:36:52.274Z,57.00
2022-08-19T04:37:44.138Z,57.00
2022-08-19T04:38:36.037Z,56.90
2022-08-19T04:39:27.871Z,56.90
2022-08-19T04:40:19.778Z,57.10
2022-08-19T04:41:11.638Z,57.20
2022-08-19T04:42:03.558Z,57.30
2022-08-19T04:42:55.806Z,57.30
2022-08-19T04:43:47.298Z,57.20
2022-08-19T04:44:46.126Z,57.10
2022-08-19T04:45:43.526Z,57.00
2022-08-19T04:46:39.274Z,57.00
2022-08-19T04:47:14.835Z,57.00
2022-08-19T04:48:26.194Z,57.00
2022-08-19T04:48:58.560Z,57.10
2022-08-19T04:49:50.426Z,57.20
2022-08-19T04:50:42.320Z,57.20
2022-08-19T04:51:34.191Z,57.20
2022-08-19T04:52:26.101Z,57.20
2022-08-19T04:53:17.913Z,57.20
2022-08-19T04:54:09.837Z,57.30
2022-08-19T04:55:01.709Z,57.20
2022-08-19T04:55:53.598Z,57.30
2022-08-19T04:56:45.468Z,57.30
2022-08-19T04:57:37.373Z,57.30
2022-08-19T04:58:29.222Z,57.40
2022-08-19T04:59:21.111Z,57.40
2022-08-19T05:00:12.982Z,57.40
2022-08-19T05:01:05.009Z,57.40
2022-08-19T05:01:56.756Z,57.40
2022-08-19T05:02:48.730Z,57.30
2022-08-19T05:03:40.509Z,57.30
2022-08-19T05:04:32.403Z,57.10
2022-08-19T05:05:24.294Z,57.10
2022-08-19T05:06:16.168Z,57.20
2022-08-19T05:07:08.001Z,57.10
2022-08-19T05:07:59.957Z,57.10
2022-08-19T05:08:51.811Z,57.10
2022-08-19T05:09:57.570Z,57.10
2022-08-19T05:10:35.564Z,57.10
2022-08-19T05:11:27.455Z,57.10
2022-08-19T05:12:19.324Z,57.30
2022-08-19T05:13:11.244Z,57.20
2022-08-19T05:14:03.091Z,57.20
2022-08-19T05:14:54.991Z,57.20
2022-08-19T05:15:46.855Z,57.20
2022-08-19T05:16:38.757Z,57.10
2022-08-19T05:17:34.892Z,57.10
2022-08-19T05:18:22.529Z,57.10
2022-08-19T05:19:14.397Z,57.20
2022-08-19T05:20:06.288Z,57.20
2022-08-19T05:20:58.098Z,57.20
2022-08-19T05:21:50.050Z,57.20
2022-08-19T05:22:41.945Z,57.00
2022-08-19T05:23:33.816Z,57.00
2022-08-19T05:24:25.705Z,56.90
2022-08-19T05:25:17.505Z,56.80
2022-08-19T05:26:09.397Z,56.90
2022-08-19T05:27:01.351Z,57.00
2022-08-19T05:27:53.235Z,57.00
2022-08-19T05:28:45.142Z,57.10
2022-08-19T05:29:36.981Z,57.00
2022-08-19T05:30:46.032Z,57.10
2022-08-19T05:31:20.756Z,57.20
2022-08-19T05:32:12.654Z,57.30
2022-08-19T05:33:04.504Z,57.30
2022-08-19T05:33:56.395Z,57.30
2022-08-19T05:34:48.200Z,57.30
2022-08-19T05:35:40.165Z,57.30
2022-08-19T05:36:32.033Z,57.40
2022-08-19T05:37:23.939Z,57.40
2022-08-19T05:38:15.821Z,57.50
2022-08-19T05:39:07.618Z,57.40
2022-08-19T05:39:59.664Z,57.50
2022-08-19T05:40:51.450Z,57.50
2022-08-19T05:41:43.321Z,57.50
2022-08-19T05:42:35.222Z,57.50
2022-08-19T05:43:27.098Z,57.50
2022-08-19T05:44:18.995Z,57.50
2022-08-19T05:45:10.847Z,57.50
2022-08-19T05:46:02.750Z,57.50
2022-08-19T05:46:54.617Z,57.50
2022-08-19T05:47:46.527Z,57.60
2022-08-19T05:48:38.395Z,57.50
2022-08-19T05:49:30.294Z,57.60
2022-08-19T05:50:22.166Z,57.50
2022-08-19T05:51:14.077Z,57.50
2022-08-19T05:52:05.949Z,57.50
2022-08-19T05:52:58.052Z,57.50
2022-08-19T05:53:49.720Z,57.50
2022-08-19T05:54:41.613Z,57.50
2022-08-19T05:55:33.495Z,57.50
2022-08-19T05:56:25.414Z,57.50
2022-08-19T05:57:17.286Z,57.40
2022-08-19T05:58:09.190Z,57.50
2022-08-19T05:59:01.071Z,57.50
2022-08-19T05:59:58.138Z,57.50
2022-08-19T06:00:44.833Z,57.50
2022-08-19T06:01:36.729Z,57.50
2022-08-19T06:02:28.664Z,57.50
2022-08-19T06:03:20.514Z,57.60
2022-08-19T06:04:12.391Z,57.50
2022-08-19T06:05:04.297Z,57.70
2022-08-19T06:05:56.176Z,57.60
2022-08-19T06:06:48.048Z,57.70
2022-08-19T06:07:39.962Z,57.70
2022-08-19T06:08:34.213Z,57.60
2022-08-19T06:09:23.738Z,57.60
2022-08-19T06:10:15.642Z,57.70
2022-08-19T06:11:07.525Z,57.70
2022-08-19T06:11:59.423Z,57.70
2022-08-19T06:12:51.289Z,57.70
2022-08-19T06:13:43.207Z,57.70
2022-08-19T06:14:35.086Z,57.70
2022-08-19T06:15:26.989Z,57.70
2022-08-19T06:16:18.878Z,57.70
2022-08-19T06:17:10.773Z,57.70
2022-08-19T06:18:02.668Z,57.70
2022-08-19T06:18:54.570Z,57.70
2022-08-19T06:19:46.446Z,57.60
2022-08-19T06:20:55.014Z,57.70
2022-08-19T06:21:30.245Z,57.70
2022-08-19T06:22:22.164Z,57.70
2022-08-19T06:23:16.255Z,57.70
2022-08-19T06:24:05.956Z,57.70
2022-08-19T06:24:57.749Z,57.70
2022-08-19T06:25:49.757Z,57.70
2022-08-19T06:26:41.640Z,57.70
2022-08-19T06:27:33.523Z,57.80
2022-08-19T06:28:25.414Z,57.80
2022-08-19T06:29:23.579Z,57.70
2022-08-19T06:30:09.197Z,57.70
2022-08-19T06:31:01.129Z,57.70
2022-08-19T06:31:52.994Z,57.70
2022-08-19T06:32:44.902Z,57.70
2022-08-19T06:33:36.784Z,57.70
2022-08-19T06:34:28.701Z,57.70
2022-08-19T06:35:20.575Z,57.70
2022-08-19T06:36:12.482Z,57.70
2022-08-19T06:37:04.366Z,57.70
2022-08-19T06:37:56.436Z,57.70
2022-08-19T06:38:48.098Z,57.70
2022-08-19T06:39:40.339Z,57.70
2022-08-19T06:40:31.999Z,57.60
2022-08-19T06:41:23.876Z,57.60
2022-08-19T06:42:15.751Z,57.70
2022-08-19T06:43:07.691Z,57.60
2022-08-19T06:43:59.542Z,57.60
2022-08-19T06:44:53.071Z,57.60
2022-08-19T06:45:43.340Z,57.60
2022-08-19T06:46:35.385Z,57.60
2022-08-19T06:47:29.074Z,57.60
2022-08-19T06:48:19.083Z,57.50
2022-08-19T06:49:11.084Z,57.50
2022-08-19T06:50:03.298Z,57.50
2022-08-19T06:50:54.749Z,57.50
2022-08-19T06:51:46.654Z,57.40
2022-08-19T06:52:38.613Z,57.40
2022-08-19T06:53:30.470Z,57.40
2022-08-19T06:54:22.348Z,57.40
2022-08-19T06:55:14.268Z,57.30
2022-08-19T06:56:06.167Z,57.30
2022-08-19T06:56:58.008Z,57.20
2022-08-19T06:57:49.960Z,57.30
2022-08-19T06:58:41.904Z,57.20
2022-08-19T06:59:33.761Z,57.20
2022-08-19T07:00:25.849Z,57.10
2022-08-19T07:01:17.579Z,57.20
2022-08-19T07:02:09.577Z,57.20
2022-08-19T07:03:05.958Z,57.20
2022-08-19T07:03:53.315Z,57.10
2022-08-19T07:04:45.206Z,57.10
2022-08-19T07:05:37.276Z,57.10
2022-08-19T07:06:44.404Z,57.20
2022-08-19T07:07:21.613Z,57.30
2022-08-19T07:08:12.840Z,57.30
2022-08-19T07:09:04.747Z,57.40
2022-08-19T07:10:00.241Z,57.40
2022-08-19T07:10:48.574Z,57.40
2022-08-19T07:11:40.499Z,57.40
2022-08-19T07:12:32.383Z,57.40
2022-08-19T07:13:24.280Z,57.30
2022-08-19T07:14:18.955Z,57.40
2022-08-19T07:15:08.017Z,57.50
2022-08-19T07:16:00.030Z,57.70
2022-08-19T07:16:51.919Z,57.70
2022-08-19T07:17:43.846Z,57.70
2022-08-19T07:18:35.726Z,57.70
2022-08-19T07:19:27.672Z,57.70
2022-08-19T07:20:19.560Z,57.80
2022-08-19T07:21:11.490Z,57.80
2022-08-19T07:22:03.391Z,57.70
2022-08-19T07:22:55.639Z,57.70
2022-08-19T07:23:47.209Z,57.70
2022-08-19T07:24:39.198Z,57.70
2022-08-19T07:25:32.216Z,57.70
2022-08-19T07:26:27.931Z,57.70
2022-08-19T07:27:15.402Z,57.70
2022-08-19T07:28:06.789Z,57.70
2022-08-19T07:28:58.692Z,57.70
2022-08-19T07:29:57.255Z,57.70
2022-08-19T07:30:42.522Z,57.70
2022-08-19T07:31:34.446Z,57.70
2022-08-19T07:32:26.357Z,57.80
2022-08-19T07:33:18.172Z,57.70
2022-08-19T07:34:10.164Z,57.80
2022-08-19T07:35:02.092Z,57.70
2022-08-19T07:35:53.989Z,57.80
2022-08-19T07:36:45.936Z,57.70
2022-08-19T07:37:37.802Z,57.80
2022-08-19T07:38:29.742Z,57.80
2022-08-19T07:39:21.649Z,57.80
2022-08-19T07:40:13.635Z,57.80
2022-08-19T07:41:05.481Z,57.80
2022-08-19T07:41:57.404Z,57.90
2022-08-19T07:42:49.293Z,57.80
2022-08-19T07:43:41.231Z,57.90
2022-08-19T07:44:33.176Z,57.80
2022-08-19T07:45:25.045Z,57.90
2022-08-19T07:46:17.001Z,57.80
2022-08-19T07:47:47.114Z,57.80
2022-08-19T07:48:01.103Z,57.80
2022-08-19T07:48:52.711Z,57.80
2022-08-19T07:49:44.601Z,57.80
2022-08-19T07:50:36.576Z,57.80
2022-08-19T07:51:36.478Z,57.80
2022-08-19T07:52:20.370Z,57.90
2022-08-19T07:53:12.251Z,57.90
2022-08-19T07:54:04.188Z,57.90
2022-08-19T07:54:56.109Z,58.00
2022-08-19T07:55:48.003Z,57.90
2022-08-19T07:56:39.916Z,57.90
2022-08-19T07:57:31.889Z,57.90
2022-08-19T07:58:23.738Z,57.90
2022-08-19T07:59:15.689Z,57.90
2022-08-19T08:00:07.604Z,57.90
2022-08-19T08:00:59.509Z,57.90
2022-08-19T08:01:51.433Z,57.90
2022-08-19T08:02:43.334Z,57.90
2022-08-19T08:03:35.227Z,58.00
2022-08-19T08:04:27.161Z,57.80
2022-08-19T08:05:19.097Z,57.80
2022-08-19T08:06:10.987Z,57.80
2022-08-19T08:07:02.895Z,57.80
2022-08-19T08:07:54.818Z,57.90
2022-08-19T08:08:47.931Z,57.90
2022-08-19T08:09:39.279Z,58.00
2022-08-19T08:10:30.557Z,58.00
2022-08-19T08:11:23.979Z,58.00
2022-08-19T08:12:33.482Z,58.00
2022-08-19T08:13:09.827Z,58.10
2022-08-19T08:14:00.411Z,58.10
2022-08-19T08:14:50.144Z,58.10
2022-08-19T08:15:43.169Z,58.10
2022-08-19T08:16:34.734Z,58.10
2022-08-19T08:17:48.866Z,58.00
2022-08-19T08:18:17.792Z,58.10
2022-08-19T08:19:20.559Z,58.00
2022-08-19T08:20:01.632Z,58.20
2022-08-19T08:20:53.538Z,58.10
2022-08-19T08:21:45.464Z,58.10
2022-08-19T08:22:37.361Z,58.10
2022-08-19T08:23:29.285Z,58.10
2022-08-19T08:24:21.199Z,58.20
2022-08-19T08:25:13.109Z,58.30
2022-08-19T08:26:04.973Z,58.20
2022-08-19T08:26:57.572Z,58.10
2022-08-19T08:27:48.904Z,58.10
2022-08-19T08:28:40.772Z,58.20
2022-08-19T08:29:34.739Z,58.20
2022-08-19T08:30:24.606Z,58.20
2022-08-19T08:31:16.498Z,58.20
2022-08-19T08:32:14.737Z,58.20
2022-08-19T08:33:00.331Z,58.30
2022-08-19T08:33:52.264Z,58.30
2022-08-19T08:34:44.179Z,58.30
2022-08-19T08:35:36.106Z,58.30
2022-08-19T08:36:27.935Z,58.20
2022-08-19T08:37:19.945Z,58.30
2022-08-19T08:38:11.844Z,58.30
2022-08-19T08:39:03.774Z,58.30
2022-08-19T08:39:55.746Z,58.40
2022-08-19T08:40:47.620Z,58.50
2022-08-19T08:41:39.513Z,58.50
2022-08-19T08:42:31.452Z,58.50
2022-08-19T08:43:23.351Z,58.40
2022-08-19T08:44:17.136Z,58.50
2022-08-19T08:45:07.169Z,58.50
2022-08-19T08:45:59.106Z,58.60
2022-08-19T08:46:52.742Z,58.60
2022-08-19T08:47:42.943Z,58.50
2022-08-19T08:48:34.867Z,58.60
2022-08-19T08:49:26.788Z,58.70
2022-08-19T08:50:18.657Z,58.60
2022-08-19T08:51:10.606Z,58.60
2022-08-19T08:52:02.516Z,58.60
2022-08-19T08:52:54.593Z,58.60
2022-08-19T08:53:46.368Z,58.60
2022-08-19T08:54:38.205Z,58.60
2022-08-19T08:55:36.589Z,58.60
2022-08-19T08:56:22.152Z,58.50
2022-08-19T08:57:14.008Z,58.50
2022-08-19T08:58:05.954Z,58.40
2022-08-19T08:58:57.858Z,58.40
2022-08-19T08:59:49.776Z,58.40
2022-08-19T09:00:41.677Z,58.40
2022-08-19T09:01:33.649Z,58.30
2022-08-19T09:02:25.509Z,58.30
2022-08-19T09:03:17.473Z,58.30
2022-08-19T09:04:09.346Z,58.30
2022-08-19T09:05:02.401Z,58.30
2022-08-19T09:05:53.201Z,58.30
2022-08-19T09:06:45.133Z,58.40
2022-08-19T09:07:38.880Z,58.50
2022-08-19T09:08:29.009Z,58.50
2022-08-19T09:09:20.863Z,58.40
2022-08-19T09:10:12.795Z,58.40
2022-08-19T09:11:05.442Z,58.30
2022-08-19T09:11:56.624Z,58.40
2022-08-19T09:12:48.466Z,58.40
2022-08-19T09:13:40.471Z,58.40
2022-08-19T09:14:49.691Z,58.50
2022-08-19T09:15:33.272Z,58.50
2022-08-19T09:16:16.210Z,58.40
2022-08-19T09:17:08.054Z,58.50
2022-08-19T09:18:00.047Z,58.50
2022-08-19T09:18:51.985Z,58.40
2022-08-19T09:19:43.894Z,58.30
2022-08-19T09:20:35.819Z,58.40
2022-08-19T09:21:33.102Z,58.40
2022-08-19T09:22:25.384Z,58.50
2022-08-19T09:23:11.574Z,58.60
2022-08-19T09:24:03.758Z,58.60
2022-08-19T09:24:55.473Z,58.50
2022-08-19T09:25:47.341Z,58.60
2022-08-19T09:26:48.357Z,58.50
2022-08-19T09:27:42.969Z,58.50
2022-08-19T09:28:27.213Z,58.50
2022-08-19T09:29:15.008Z,58.50
2022-08-19T09:30:06.910Z,58.40
2022-08-19T09:30:58.844Z,58.40
2022-08-19T09:31:50.774Z,58.40
2022-08-19T09:32:42.704Z,58.50
2022-08-19T09:33:34.600Z,58.50
2022-08-19T09:34:26.523Z,58.50
2022-08-19T09:35:18.395Z,58.60
2022-08-19T09:36:10.363Z,58.50
2022-08-19T09:37:02.276Z,58.40
2022-08-19T09:37:57.443Z,58.50
2022-08-19T09:38:46.110Z,58.50
2022-08-19T09:39:38.051Z,58.50
2022-08-19T09:40:30.947Z,58.50
2022-08-19T09:41:21.884Z,58.50
2022-08-19T09:42:16.328Z,58.50
2022-08-19T09:43:10.098Z,58.60
2022-08-19T09:43:57.794Z,58.70
2022-08-19T09:44:49.575Z,58.60
2022-08-19T09:45:41.504Z,58.60
2022-08-19T09:46:33.412Z,58.60
2022-08-19T09:47:25.314Z,58.50
2022-08-19T09:48:18.928Z,58.60
2022-08-19T09:49:09.154Z,58.60
2022-08-19T09:50:01.099Z,58.60
2022-08-19T09:50:52.996Z,58.60
2022-08-19T09:51:46.874Z,58.50
2022-08-19T09:52:36.825Z,58.70
2022-08-19T09:53:28.747Z,58.60
2022-08-19T09:54:23.833Z,58.60
2022-08-19T09:55:12.601Z,58.40
2022-08-19T09:56:04.499Z,58.50
2022-08-19T09:56:56.433Z,58.50
2022-08-19T09:57:48.277Z,58.70
2022-08-19T09:58:40.274Z,58.70
2022-08-19T09:59:33.294Z,58.70
2022-08-19T10:00:24.118Z,58.70
2022-08-19T10:01:16.103Z,58.60
2022-08-19T10:02:10.929Z,58.60
2022-08-19T10:02:59.864Z,58.70
2022-08-19T10:03:51.765Z,58.70
2022-08-19T10:04:43.704Z,58.70
2022-08-19T10:05:35.618Z,58.60
2022-08-19T10:06:44.034Z,58.70
2022-08-19T10:07:19.467Z,58.80
2022-08-19T10:08:13.588Z,58.90
2022-08-19T10:09:03.320Z,58.80
2022-08-19T10:09:55.212Z,58.70
2022-08-19T10:10:47.314Z,58.60
2022-08-19T10:11:39.675Z,58.80
2022-08-19T10:12:30.999Z,58.80
2022-08-19T10:13:22.921Z,58.80
2022-08-19T10:14:14.984Z,58.80
2022-08-19T10:15:06.737Z,59.00
2022-08-19T10:15:58.583Z,59.00
2022-08-19T10:16:50.579Z,59.00
2022-08-19T10:17:48.072Z,58.80
2022-08-19T10:18:34.414Z,58.70
2022-08-19T10:19:26.558Z,58.70
2022-08-19T10:20:18.153Z,58.70
2022-08-19T10:21:11.578Z,58.70
2022-08-19T10:22:02.069Z,58.70
2022-08-19T10:22:54.015Z,58.60
2022-08-19T10:23:45.905Z,58.60
2022-08-19T10:24:37.847Z,58.60
2022-08-19T10:25:29.761Z,58.50
2022-08-19T10:26:21.681Z,58.40
2022-08-19T10:27:13.591Z,58.40
2022-08-19T10:28:05.539Z,58.40
2022-08-19T10:28:57.429Z,58.30
2022-08-19T10:29:49.364Z,58.30
2022-08-19T10:30:41.290Z,58.20
2022-08-19T10:32:02.196Z,58.20
2022-08-19T10:32:34.058Z,58.20
2022-08-19T10:33:38.183Z,58.10
2022-08-19T10:34:10.124Z,58.10
2022-08-19T10:35:00.903Z,58.10
2022-08-19T10:35:56.620Z,58.10
2022-08-19T10:36:55.855Z,58.20
2022-08-19T10:37:36.623Z,58.20
2022-08-19T10:38:31.789Z,58.30
2022-08-19T10:39:20.474Z,58.30
2022-08-19T10:40:12.562Z,58.20
2022-08-19T10:41:04.322Z,58.30
2022-08-19T10:41:56.278Z,58.30
2022-08-19T10:42:48.179Z,58.10
2022-08-19T10:43:40.102Z,58.10
2022-08-19T10:44:32.261Z,58.20
2022-08-19T10:45:23.938Z,58.10
2022-08-19T10:46:16.673Z,58.20
2022-08-19T10:47:17.486Z,58.20
2022-08-19T10:47:59.713Z,58.10
2022-08-19T10:48:51.587Z,58.30
2022-08-19T10:49:43.557Z,58.20
2022-08-19T10:50:35.479Z,58.30
2022-08-19T10:51:27.386Z,58.30
2022-08-19T10:52:22.003Z,58.30
2022-08-19T10:53:11.238Z,58.10
2022-08-19T10:54:03.186Z,58.20
2022-08-19T10:54:55.087Z,58.30
2022-08-19T10:55:47.026Z,58.20
2022-08-19T10:56:38.927Z,58.10
2022-08-19T10:57:52.218Z,58.20
2022-08-19T10:58:22.768Z,58.10
2022-08-19T10:59:14.721Z,58.10
2022-08-19T11:00:06.600Z,58.10
2022-08-19T11:00:58.536Z,58.20
2022-08-19T11:01:50.441Z,58.30
2022-08-19T11:02:42.395Z,58.20
2022-08-19T11:03:34.295Z,58.10
2022-08-19T11:04:29.597Z,58.10
2022-08-19T11:05:18.145Z,58.10
2022-08-19T11:06:10.070Z,58.20
2022-08-19T11:07:01.979Z,58.20
2022-08-19T11:07:54.142Z,58.30